Avon, Ohio
Current Conditions -  °F | °C
As of 10:51 AM on Thursday 18 Dec 2014 (Local Time) from KCLE Reporting Station
Light Snow Light Snow  
Wind Chill: 22°   Ceiling: 2000
Heat Index: 30°   Visibility: 7mi
Dew Point: 23°   Wind: 9mph
Humidity: 75%   Direction: 240°WSW
Pressure: 30.24"   Gusts: NA
Location:  41.47°N, 82.02°W
Report Text: KCLE 181551Z 24008KT 7SM -SN OVC020 M01/M05 A3024 RMK AO2 SNB43 SLP250 P0000 T10111050
Loading
Personal Weather Stations






























Interactive Weather Map New forecast layout! Learn more

10-Day Weather Forecast

Advertisements
Track Severe Weather on mobile